Main page
METAR-TAF:

METAR-TAF

Airports :

Vancouver, British Columbia, Canada

Vancouver International Airport

latitude: 49-11N, longitude: 123-10W, elevation: 3 m

Current weather observation

The report was made 31 minutes ago, at 17:00 UTC
Wind 9 kt from the West/Northwest
Temperature 17°C
Humidity 72%
Pressure 1016 hPa
Visibility: 48.3 km
Few clouds at a height of 2000 ft
Few clouds at a height of 22000 ft

METAR: CYVR 281700Z 29009KT 30SM FEW020 FEW220 17/12 A3000 RMK CU1CI1 CI TR SLP162 DENSITY ALT 200FT

Time: 10:31 (17:31 UTC)

Forecast

The report was made 2 hours and 52 minutes ago, at 14:39 UTC
Forecast valid from 28 at 15 UTC to 29 at 18 UTC
Wind 10 kt from the West
Visibility: 10 km
Few clouds at a height of 7000 ft
From 29 at 0500 UTC
Wind 5 kt from the East
Visibility: 10 km
Scattered clouds at a height of 24000 ft

TAF: CYVR 281439Z 2815/2918 28010KT P6SM FEW070 FM290500 09005KT P6SM SCT240 RMK NXT FCST BY 281800Z

Weather observations and forecasts of more than 4000 airports (METAR and TAF reports).

The available stations are represented by yellow and red dots on the map.

Hover mouse over dot to see the name of the station.

Then click to see weather observations and forecasts.

To change the map : click on the green buttons with a black cross to zoom in, on the green button with a dash to zoom out, or on the green arrows for adjacent maps.


METAR-TAF: